sensor_id;sensor_type;location;lat;lon;timestamp;pressure;altitude;pressure_sealevel;temperature;humidity
10366;BME280;5229;41.820;23.490;2023-02-03T00:02:13;89998.69;;;3.69;54.89
10366;BME280;5229;41.820;23.490;2023-02-03T00:04:40;89990.00;;;3.70;54.39
10366;BME280;5229;41.820;23.490;2023-02-03T00:07:08;89990.00;;;3.70;54.65
10366;BME280;5229;41.820;23.490;2023-02-03T00:09:35;89988.44;;;3.69;54.48
10366;BME280;5229;41.820;23.490;2023-02-03T00:12:02;89981.00;;;3.68;54.77
10366;BME280;5229;41.820;23.490;2023-02-03T00:14:31;89980.25;;;3.67;54.85
10366;BME280;5229;41.820;23.490;2023-02-03T00:16:58;89969.50;;;3.65;55.25
10366;BME280;5229;41.820;23.490;2023-02-03T00:19:24;89953.09;;;3.66;55.04
10366;BME280;5229;41.820;23.490;2023-02-03T00:21:51;89934.34;;;3.71;55.30
10366;BME280;5229;41.820;23.490;2023-02-03T00:24:18;89932.03;;;3.74;54.89
10366;BME280;5229;41.820;23.490;2023-02-03T00:26:47;89933.03;;;3.73;54.95
10366;BME280;5229;41.820;23.490;2023-02-03T00:29:14;89936.66;;;3.72;55.69
10366;BME280;5229;41.820;23.490;2023-02-03T00:31:44;89938.47;;;3.72;55.72
10366;BME280;5229;41.820;23.490;2023-02-03T00:34:11;89950.25;;;3.73;55.42
10366;BME280;5229;41.820;23.490;2023-02-03T00:36:37;89951.28;;;3.72;55.19
10366;BME280;5229;41.820;23.490;2023-02-03T00:39:04;89953.84;;;3.72;55.38
10366;BME280;5229;41.820;23.490;2023-02-03T00:41:31;89958.44;;;3.75;55.50
10366;BME280;5229;41.820;23.490;2023-02-03T00:43:58;89960.72;;;3.76;55.24
10366;BME280;5229;41.820;23.490;2023-02-03T00:46:25;89956.38;;;3.77;55.66
10366;BME280;5229;41.820;23.490;2023-02-03T00:48:53;89955.84;;;3.75;55.76
10366;BME280;5229;41.820;23.490;2023-02-03T00:51:20;89941.03;;;3.72;55.67
10366;BME280;5229;41.820;23.490;2023-02-03T00:53:47;89937.44;;;3.73;55.31
10366;BME280;5229;41.820;23.490;2023-02-03T00:56:13;89928.16;;;3.77;55.37
10366;BME280;5229;41.820;23.490;2023-02-03T00:58:40;89926.88;;;3.79;55.71
10366;BME280;5229;41.820;23.490;2023-02-03T01:01:07;89918.38;;;3.84;55.47
10366;BME280;5229;41.820;23.490;2023-02-03T01:03:34;89918.13;;;3.85;55.50
10366;BME280;5229;41.820;23.490;2023-02-03T01:06:10;89909.94;;;3.83;55.48
10366;BME280;5229;41.820;23.490;2023-02-03T01:08:37;89899.13;;;3.86;55.66
10366;BME280;5229;41.820;23.490;2023-02-03T01:11:06;89893.47;;;3.89;55.67
10366;BME280;5229;41.820;23.490;2023-02-03T01:13:33;89897.03;;;3.93;55.28
10366;BME280;5229;41.820;23.490;2023-02-03T01:16:00;89911.91;;;3.96;55.00
10366;BME280;5229;41.820;23.490;2023-02-03T01:18:27;89917.03;;;3.96;55.80
10366;BME280;5229;41.820;23.490;2023-02-03T01:20:53;89913.44;;;3.97;55.45
10366;BME280;5229;41.820;23.490;2023-02-03T01:23:22;89917.03;;;3.96;55.12
10366;BME280;5229;41.820;23.490;2023-02-03T01:25:48;89917.28;;;3.95;55.22
10366;BME280;5229;41.820;23.490;2023-02-03T01:28:15;89920.16;;;3.88;55.65
10366;BME280;5229;41.820;23.490;2023-02-03T01:30:42;89917.63;;;3.83;55.39
10366;BME280;5229;41.820;23.490;2023-02-03T01:33:09;89932.00;;;3.79;55.72
10366;BME280;5229;41.820;23.490;2023-02-03T01:35:35;89925.34;;;3.78;56.13
10366;BME280;5229;41.820;23.490;2023-02-03T01:38:02;89923.56;;;3.74;55.74
10366;BME280;5229;41.820;23.490;2023-02-03T01:40:30;89937.94;;;3.70;55.74
10366;BME280;5229;41.820;23.490;2023-02-03T01:42:57;89930.03;;;3.66;55.77
10366;BME280;5229;41.820;23.490;2023-02-03T01:45:24;89924.41;;;3.64;55.56
10366;BME280;5229;41.820;23.490;2023-02-03T01:47:54;89930.03;;;3.66;55.80
10366;BME280;5229;41.820;23.490;2023-02-03T01:50:25;89917.97;;;3.67;55.90
10366;BME280;5229;41.820;23.490;2023-02-03T01:52:57;89911.53;;;3.69;55.24
10366;BME280;5229;41.820;23.490;2023-02-03T01:55:27;89911.00;;;3.72;55.64
10366;BME280;5229;41.820;23.490;2023-02-03T01:58:01;89914.56;;;3.76;55.29
10366;BME280;5229;41.820;23.490;2023-02-03T02:00:29;89908.44;;;3.77;54.99
10366;BME280;5229;41.820;23.490;2023-02-03T02:02:57;89910.75;;;3.79;55.19
10366;BME280;5229;41.820;23.490;2023-02-03T02:05:30;89906.13;;;3.76;54.91
10366;BME280;5229;41.820;23.490;2023-02-03T02:07:59;89913.56;;;3.72;54.59
10366;BME280;5229;41.820;23.490;2023-02-03T02:10:28;89913.84;;;3.71;55.38
10366;BME280;5229;41.820;23.490;2023-02-03T02:12:55;89913.56;;;3.72;54.82
10366;BME280;5229;41.820;23.490;2023-02-03T02:15:26;89900.22;;;3.75;55.44
10366;BME280;5229;41.820;23.490;2023-02-03T02:18:10;89920.75;;;3.75;54.39
10366;BME280;5229;41.820;23.490;2023-02-03T02:21:18;89904.31;;;3.76;54.96
10366;BME280;5229;41.820;23.490;2023-02-03T02:24:10;89921.28;;;3.72;55.31
10366;BME280;5229;41.820;23.490;2023-02-03T02:26:59;89943.06;;;3.70;54.76
10366;BME280;5229;41.820;23.490;2023-02-03T02:32:42;89953.63;;;3.63;54.53
10366;BME280;5229;41.820;23.490;2023-02-03T02:35:16;89968.22;;;3.63;54.58
10366;BME280;5229;41.820;23.490;2023-02-03T02:37:49;89967.94;;;3.69;54.70
10366;BME280;5229;41.820;23.490;2023-02-03T02:40:23;89979.19;;;3.73;54.57
10366;BME280;5229;41.820;23.490;2023-02-03T02:42:59;89998.44;;;3.76;54.88
10366;BME280;5229;41.820;23.490;2023-02-03T02:45:30;90014.81;;;3.80;54.66
10366;BME280;5229;41.820;23.490;2023-02-03T02:48:04;90018.16;;;3.75;55.05
10366;BME280;5229;41.820;23.490;2023-02-03T02:50:38;90025.09;;;3.70;55.13
10366;BME280;5229;41.820;23.490;2023-02-03T02:53:07;90031.00;;;3.65;55.59
10366;BME280;5229;41.820;23.490;2023-02-03T02:55:36;90021.31;;;3.57;56.28
10366;BME280;5229;41.820;23.490;2023-02-03T02:58:07;90018.22;;;3.55;56.31
10366;BME280;5229;41.820;23.490;2023-02-03T03:00:36;90011.06;;;3.57;56.42
10366;BME280;5229;41.820;23.490;2023-02-03T03:03:13;90020.78;;;3.55;56.82
10366;BME280;5229;41.820;23.490;2023-02-03T03:05:41;90021.06;;;3.49;57.02
10366;BME280;5229;41.820;23.490;2023-02-03T03:08:11;90017.28;;;3.36;57.51
10366;BME280;5229;41.820;23.490;2023-02-03T03:10:40;90028.53;;;3.30;58.14
10366;BME280;5229;41.820;23.490;2023-02-03T03:13:10;90024.72;;;3.28;57.97
10366;BME280;5229;41.820;23.490;2023-02-03T03:15:39;90030.09;;;3.26;58.50
10366;BME280;5229;41.820;23.490;2023-02-03T03:18:11;90019.63;;;3.23;58.19
10366;BME280;5229;41.820;23.490;2023-02-03T03:20:41;90018.59;;;3.19;58.54
10366;BME280;5229;41.820;23.490;2023-02-03T03:23:13;90018.84;;;3.17;58.42
10366;BME280;5229;41.820;23.490;2023-02-03T03:25:42;90024.72;;;3.17;57.92
10366;BME280;5229;41.820;23.490;2023-02-03T03:28:14;90027.06;;;3.14;58.11
10366;BME280;5229;41.820;23.490;2023-02-03T03:30:43;90013.22;;;3.10;58.05
10366;BME280;5229;41.820;23.490;2023-02-03T03:33:10;90019.38;;;3.04;57.70
10366;BME280;5229;41.820;23.490;2023-02-03T03:35:41;90043.97;;;3.00;57.60
10366;BME280;5229;41.820;23.490;2023-02-03T03:38:17;90063.69;;;2.94;57.61
10366;BME280;5229;41.820;23.490;2023-02-03T03:40:50;90064.97;;;2.92;57.86
10366;BME280;5229;41.820;23.490;2023-02-03T03:43:21;90073.16;;;2.94;57.55
10366;BME280;5229;41.820;23.490;2023-02-03T03:45:53;90066.25;;;2.94;57.68
10366;BME280;5229;41.820;23.490;2023-02-03T03:48:26;90069.81;;;2.93;57.65
10366;BME280;5229;41.820;23.490;2023-02-03T03:51:00;90081.34;;;2.96;57.92
10366;BME280;5229;41.820;23.490;2023-02-03T03:53:30;90073.91;;;2.99;57.42
10366;BME280;5229;41.820;23.490;2023-02-03T03:55:59;90073.66;;;3.01;56.45
10366;BME280;5229;41.820;23.490;2023-02-03T03:58:29;90080.56;;;3.00;56.99
10366;BME280;5229;41.820;23.490;2023-02-03T04:00:58;90065.50;;;2.99;56.63
10366;BME280;5229;41.820;23.490;2023-02-03T04:03:29;90076.75;;;2.93;57.17
10366;BME280;5229;41.820;23.490;2023-02-03T04:05:59;90078.28;;;2.89;56.74
10366;BME280;5229;41.820;23.490;2023-02-03T04:08:26;90083.38;;;2.84;56.41
10366;BME280;5229;41.820;23.490;2023-02-03T04:10:52;90077.00;;;2.76;56.80
10366;BME280;5229;41.820;23.490;2023-02-03T04:13:19;90074.16;;;2.63;56.87
10366;BME280;5229;41.820;23.490;2023-02-03T04:15:46;90068.00;;;2.49;57.14
10366;BME280;5229;41.820;23.490;2023-02-03T04:18:14;90068.72;;;2.29;57.21
10366;BME280;5229;41.820;23.490;2023-02-03T04:20:41;90061.56;;;2.16;57.42
10366;BME280;5229;41.820;23.490;2023-02-03T04:23:10;90059.72;;;2.02;57.25
10366;BME280;5229;41.820;23.490;2023-02-03T04:25:36;90053.53;;;1.88;57.57
10366;BME280;5229;41.820;23.490;2023-02-03T04:28:03;90050.44;;;1.81;57.11
10366;BME280;5229;41.820;23.490;2023-02-03T04:30:31;90057.56;;;1.74;56.63
10366;BME280;5229;41.820;23.490;2023-02-03T04:32:58;90065.97;;;1.69;56.98
10366;BME280;5229;41.820;23.490;2023-02-03T04:35:25;90074.66;;;1.68;56.67
10366;BME280;5229;41.820;23.490;2023-02-03T04:37:51;90068.53;;;1.64;56.64
10366;BME280;5229;41.820;23.490;2023-02-03T04:40:20;90059.56;;;1.62;55.72
10366;BME280;5229;41.820;23.490;2023-02-03T04:42:46;90069.50;;;1.58;55.92
10366;BME280;5229;41.820;23.490;2023-02-03T04:45:13;90069.50;;;1.53;55.39
10366;BME280;5229;41.820;23.490;2023-02-03T04:47:40;90074.84;;;1.52;55.37
10366;BME280;5229;41.820;23.490;2023-02-03T04:50:07;90088.66;;;1.51;55.21
10366;BME280;5229;41.820;23.490;2023-02-03T04:52:34;90090.41;;;1.45;55.05
10366;BME280;5229;41.820;23.490;2023-02-03T04:55:01;90088.59;;;1.41;54.87
10366;BME280;5229;41.820;23.490;2023-02-03T04:57:30;90092.16;;;1.40;54.46
10366;BME280;5229;41.820;23.490;2023-02-03T04:59:57;90094.19;;;1.38;54.54
10366;BME280;5229;41.820;23.490;2023-02-03T05:02:24;90096.22;;;1.36;54.59
10366;BME280;5229;41.820;23.490;2023-02-03T05:04:50;90107.97;;;1.37;54.89
10366;BME280;5229;41.820;23.490;2023-02-03T05:07:17;90117.72;;;1.40;54.77
10366;BME280;5229;41.820;23.490;2023-02-03T05:09:44;90117.19;;;1.38;54.50
10366;BME280;5229;41.820;23.490;2023-02-03T05:12:11;90113.34;;;1.40;54.49
10366;BME280;5229;41.820;23.490;2023-02-03T05:14:39;90120.78;;;1.42;54.53
10366;BME280;5229;41.820;23.490;2023-02-03T05:17:06;90107.22;;;1.41;54.34
10366;BME280;5229;41.820;23.490;2023-02-03T05:19:32;90121.78;;;1.41;54.29
10366;BME280;5229;41.820;23.490;2023-02-03T05:21:59;90126.84;;;1.36;54.31
10366;BME280;5229;41.820;23.490;2023-02-03T05:24:26;90128.13;;;1.33;54.57
10366;BME280;5229;41.820;23.490;2023-02-03T05:26:53;90119.72;;;1.33;54.50
10366;BME280;5229;41.820;23.490;2023-02-03T05:29:19;90128.13;;;1.33;54.20
10366;BME280;5229;41.820;23.490;2023-02-03T05:31:48;90125.06;;;1.31;53.62
10366;BME280;5229;41.820;23.490;2023-02-03T05:34:14;90118.63;;;1.29;54.07
10366;BME280;5229;41.820;23.490;2023-02-03T05:36:41;90133.97;;;1.29;53.93
10366;BME280;5229;41.820;23.490;2023-02-03T05:39:08;90119.66;;;1.28;54.26
10366;BME280;5229;41.820;23.490;2023-02-03T05:41:35;90128.84;;;1.29;54.12
10366;BME280;5229;41.820;23.490;2023-02-03T05:44:19;90130.91;;;1.27;53.90
10366;BME280;5229;41.820;23.490;2023-02-03T05:46:48;90127.28;;;1.23;54.28
10366;BME280;5229;41.820;23.490;2023-02-03T05:49:15;90119.63;;;1.23;54.48
10366;BME280;5229;41.820;23.490;2023-02-03T05:51:42;90117.09;;;1.23;54.22
10366;BME280;5229;41.820;23.490;2023-02-03T05:54:09;90121.16;;;1.24;54.22
10366;BME280;5229;41.820;23.490;2023-02-03T05:56:36;90125.00;;;1.26;54.33
10366;BME280;5229;41.820;23.490;2023-02-03T05:59:04;90143.19;;;1.30;54.41
10366;BME280;5229;41.820;23.490;2023-02-03T06:01:31;90132.72;;;1.31;54.11
10366;BME280;5229;41.820;23.490;2023-02-03T06:04:00;90138.34;;;1.33;54.38
10366;BME280;5229;41.820;23.490;2023-02-03T06:06:27;90142.19;;;1.36;54.17
10366;BME280;5229;41.820;23.490;2023-02-03T06:08:58;90138.13;;;1.40;53.78
10366;BME280;5229;41.820;23.490;2023-02-03T06:11:25;90142.25;;;1.46;53.71
10366;BME280;5229;41.820;23.490;2023-02-03T06:13:53;90145.56;;;1.46;53.80
10366;BME280;5229;41.820;23.490;2023-02-03T06:16:20;90154.53;;;1.49;53.63
10366;BME280;5229;41.820;23.490;2023-02-03T06:18:49;90153.25;;;1.51;53.51
10366;BME280;5229;41.820;23.490;2023-02-03T06:21:18;90156.34;;;1.53;53.38
10366;BME280;5229;41.820;23.490;2023-02-03T06:23:44;90157.63;;;1.56;53.46
10366;BME280;5229;41.820;23.490;2023-02-03T06:26:11;90154.09;;;1.62;53.65
10366;BME280;5229;41.820;23.490;2023-02-03T06:28:38;90144.94;;;1.66;53.66
10366;BME280;5229;41.820;23.490;2023-02-03T06:31:05;90138.31;;;1.70;53.25
10366;BME280;5229;41.820;23.490;2023-02-03T06:33:32;90142.16;;;1.72;53.20
10366;BME280;5229;41.820;23.490;2023-02-03T06:35:59;90151.13;;;1.80;53.33
10366;BME280;5229;41.820;23.490;2023-02-03T06:38:27;90139.66;;;2.54;52.65
10366;BME280;5229;41.820;23.490;2023-02-03T06:40:54;90134.00;;;4.02;50.97
10366;BME280;5229;41.820;23.490;2023-02-03T06:43:21;90134.19;;;5.51;47.98
10366;BME280;5229;41.820;23.490;2023-02-03T06:45:47;90144.09;;;6.86;45.16
10366;BME280;5229;41.820;23.490;2023-02-03T06:48:14;90141.16;;;8.12;43.68
10366;BME280;5229;41.820;23.490;2023-02-03T06:50:41;90152.38;;;8.34;43.38
10366;BME280;5229;41.820;23.490;2023-02-03T06:53:08;90165.06;;;8.17;42.40
10366;BME280;5229;41.820;23.490;2023-02-03T06:55:36;90169.59;;;7.93;43.55
10366;BME280;5229;41.820;23.490;2023-02-03T06:58:03;90164.16;;;8.54;42.83
10366;BME280;5229;41.820;23.490;2023-02-03T07:00:29;90165.38;;;9.46;41.71
10366;BME280;5229;41.820;23.490;2023-02-03T07:02:57;90177.38;;;8.66;42.72
10366;BME280;5229;41.820;23.490;2023-02-03T07:05:24;90175.91;;;8.01;44.15
10366;BME280;5229;41.820;23.490;2023-02-03T07:07:52;90175.16;;;8.00;46.27
10366;BME280;5229;41.820;23.490;2023-02-03T07:10:19;90175.91;;;8.01;47.78
10366;BME280;5229;41.820;23.490;2023-02-03T07:12:48;90173.00;;;7.57;49.64
10366;BME280;5229;41.820;23.490;2023-02-03T07:15:16;90174.56;;;7.02;51.72
10366;BME280;5229;41.820;23.490;2023-02-03T07:17:43;90189.81;;;6.99;53.90
10366;BME280;5229;41.820;23.490;2023-02-03T07:20:13;90192.69;;;7.34;54.70
10366;BME280;5229;41.820;23.490;2023-02-03T07:22:39;90196.25;;;7.57;55.06
10366;BME280;5229;41.820;23.490;2023-02-03T07:25:08;90188.47;;;8.53;55.70
10366;BME280;5229;41.820;23.490;2023-02-03T07:27:35;90189.66;;;9.37;55.75
10366;BME280;5229;41.820;23.490;2023-02-03T07:30:04;90190.88;;;10.10;55.12
10366;BME280;5229;41.820;23.490;2023-02-03T07:32:31;90194.09;;;10.68;55.39
10366;BME280;5229;41.820;23.490;2023-02-03T07:34:57;90201.56;;;11.09;56.21
10366;BME280;5229;41.820;23.490;2023-02-03T07:37:25;90210.31;;;11.21;56.63
10366;BME280;5229;41.820;23.490;2023-02-03T07:39:52;90201.66;;;11.43;56.58
10366;BME280;5229;41.820;23.490;2023-02-03T07:42:19;90210.09;;;11.57;56.11
10366;BME280;5229;41.820;23.490;2023-02-03T07:44:46;90210.41;;;11.72;56.45
10366;BME280;5229;41.820;23.490;2023-02-03T07:47:14;90207.84;;;11.64;56.84
10366;BME280;5229;41.820;23.490;2023-02-03T07:49:40;90213.88;;;11.51;56.33
10366;BME280;5229;41.820;23.490;2023-02-03T07:52:08;90216.78;;;11.58;56.84
10366;BME280;5229;41.820;23.490;2023-02-03T07:54:35;90216.53;;;12.11;56.86
10366;BME280;5229;41.820;23.490;2023-02-03T07:57:01;90217.28;;;12.45;56.31
10366;BME280;5229;41.820;23.490;2023-02-03T07:59:28;90222.78;;;12.52;56.79
10366;BME280;5229;41.820;23.490;2023-02-03T08:01:55;90223.09;;;12.51;55.76
10366;BME280;5229;41.820;23.490;2023-02-03T08:04:23;90216.50;;;12.45;55.63
10366;BME280;5229;41.820;23.490;2023-02-03T08:06:50;90215.75;;;12.36;56.72
10366;BME280;5229;41.820;23.490;2023-02-03T08:09:17;90220.22;;;12.35;56.03
10366;BME280;5229;41.820;23.490;2023-02-03T08:11:44;90214.84;;;12.40;55.89
10366;BME280;5229;41.820;23.490;2023-02-03T08:14:10;90226.91;;;12.62;54.84
10366;BME280;5229;41.820;23.490;2023-02-03T08:16:37;90219.88;;;13.08;55.04
10366;BME280;5229;41.820;23.490;2023-02-03T08:19:04;90217.66;;;13.56;54.29
10366;BME280;5229;41.820;23.490;2023-02-03T08:21:32;90218.25;;;13.82;53.96
10366;BME280;5229;41.820;23.490;2023-02-03T08:23:59;90212.16;;;13.99;53.83
10366;BME280;5229;41.820;23.490;2023-02-03T08:26:26;90204.44;;;13.90;53.28
10366;BME280;5229;41.820;23.490;2023-02-03T08:28:52;90207.47;;;13.72;54.07
10366;BME280;5229;41.820;23.490;2023-02-03T08:31:19;90209.44;;;13.46;53.56
10366;BME280;5229;41.820;23.490;2023-02-03T08:33:46;90200.72;;;13.13;54.56
10366;BME280;5229;41.820;23.490;2023-02-03T08:36:13;90196.28;;;13.13;53.58
10366;BME280;5229;41.820;23.490;2023-02-03T08:38:41;90198.41;;;13.20;54.09
10366;BME280;5229;41.820;23.490;2023-02-03T08:41:09;90206.59;;;13.39;54.25
10366;BME280;5229;41.820;23.490;2023-02-03T08:43:36;90211.22;;;13.83;53.96
10366;BME280;5229;41.820;23.490;2023-02-03T08:46:04;90208.44;;;14.29;52.88
10366;BME280;5229;41.820;23.490;2023-02-03T08:48:31;90215.34;;;14.45;51.89
10366;BME280;5229;41.820;23.490;2023-02-03T08:50:58;90223.63;;;14.27;51.44
10366;BME280;5229;41.820;23.490;2023-02-03T08:53:25;90225.84;;;14.37;51.47
10366;BME280;5229;41.820;23.490;2023-02-03T08:55:53;90220.06;;;14.52;51.22
10366;BME280;5229;41.820;23.490;2023-02-03T08:58:20;90217.09;;;14.74;51.29
10366;BME280;5229;41.820;23.490;2023-02-03T09:00:47;90225.41;;;15.00;50.37
10366;BME280;5229;41.820;23.490;2023-02-03T09:03:14;90223.75;;;15.64;49.51
10366;BME280;5229;41.820;23.490;2023-02-03T09:05:41;90220.28;;;16.63;48.07
10366;BME280;5229;41.820;23.490;2023-02-03T09:08:08;90225.84;;;17.48;46.15
10366;BME280;5229;41.820;23.490;2023-02-03T09:10:35;90224.56;;;18.23;45.48
10366;BME280;5229;41.820;23.490;2023-02-03T09:13:03;90225.44;;;19.03;44.32
10366;BME280;5229;41.820;23.490;2023-02-03T09:15:30;90236.53;;;19.80;43.80
10366;BME280;5229;41.820;23.490;2023-02-03T09:17:57;90240.44;;;20.38;42.82
10366;BME280;5229;41.820;23.490;2023-02-03T09:20:23;90237.56;;;20.76;42.49
10366;BME280;5229;41.820;23.490;2023-02-03T09:22:50;90234.94;;;21.42;42.17
10366;BME280;5229;41.820;23.490;2023-02-03T09:25:19;90246.50;;;22.14;41.13
10366;BME280;5229;41.820;23.490;2023-02-03T09:27:46;90249.34;;;22.42;40.27
10366;BME280;5229;41.820;23.490;2023-02-03T09:30:14;90241.50;;;22.49;39.04
10366;BME280;5229;41.820;23.490;2023-02-03T09:32:41;90248.28;;;22.50;39.25
10366;BME280;5229;41.820;23.490;2023-02-03T09:35:08;90255.94;;;22.66;38.68
10366;BME280;5229;41.820;23.490;2023-02-03T09:37:35;90251.13;;;22.85;38.95
10366;BME280;5229;41.820;23.490;2023-02-03T09:40:02;90259.28;;;23.28;39.25
10366;BME280;5229;41.820;23.490;2023-02-03T09:42:43;90262.78;;;23.67;37.63
10366;BME280;5229;41.820;23.490;2023-02-03T09:45:23;90265.13;;;24.07;36.99
10366;BME280;5229;41.820;23.490;2023-02-03T09:47:53;90263.63;;;24.41;36.90
10366;BME280;5229;41.820;23.490;2023-02-03T09:50:24;90266.25;;;24.55;36.25
10366;BME280;5229;41.820;23.490;2023-02-03T09:52:52;90264.75;;;24.40;35.76
10366;BME280;5229;41.820;23.490;2023-02-03T09:55:25;90257.56;;;24.37;35.22
10366;BME280;5229;41.820;23.490;2023-02-03T09:58:00;90260.19;;;24.58;34.94
10366;BME280;5229;41.820;23.490;2023-02-03T10:00:33;90265.84;;;24.81;34.95
10366;BME280;5229;41.820;23.490;2023-02-03T10:03:06;90271.88;;;25.02;34.18
10366;BME280;5229;41.820;23.490;2023-02-03T10:05:45;90270.34;;;25.05;33.81
10366;BME280;5229;41.820;23.490;2023-02-03T10:08:24;90276.38;;;25.16;33.83
10366;BME280;5229;41.820;23.490;2023-02-03T10:10:59;90277.91;;;25.17;33.28
10366;BME280;5229;41.820;23.490;2023-02-03T10:13:43;90273.38;;;25.14;33.51
10366;BME280;5229;41.820;23.490;2023-02-03T10:16:28;90269.13;;;25.27;34.83
10366;BME280;5229;41.820;23.490;2023-02-03T10:19:01;90277.84;;;25.38;33.20
10366;BME280;5229;41.820;23.490;2023-02-03T10:21:34;90285.44;;;25.43;33.31
10366;BME280;5229;41.820;23.490;2023-02-03T10:24:04;90282.44;;;25.20;32.01
10366;BME280;5229;41.820;23.490;2023-02-03T10:26:32;90286.34;;;24.87;32.83
10366;BME280;5229;41.820;23.490;2023-02-03T10:29:03;90283.34;;;24.68;32.06
10366;BME280;5229;41.820;23.490;2023-02-03T10:31:35;90281.41;;;24.61;32.79
10366;BME280;5229;41.820;23.490;2023-02-03T10:34:09;90279.13;;;24.74;33.11
10366;BME280;5229;41.820;23.490;2023-02-03T10:36:47;90273.41;;;25.00;32.75
10366;BME280;5229;41.820;23.490;2023-02-03T10:39:24;90277.97;;;24.96;31.99
10366;BME280;5229;41.820;23.490;2023-02-03T10:41:53;90267.41;;;24.75;32.30
10366;BME280;5229;41.820;23.490;2023-02-03T10:44:24;90269.66;;;24.52;31.35
10366;BME280;5229;41.820;23.490;2023-02-03T10:46:57;90265.13;;;24.10;31.71
10366;BME280;5229;41.820;23.490;2023-02-03T10:49:25;90259.06;;;23.96;32.13
10366;BME280;5229;41.820;23.490;2023-02-03T10:51:57;90259.03;;;23.89;31.84
10366;BME280;5229;41.820;23.490;2023-02-03T10:54:30;90259.03;;;23.89;32.21
10366;BME280;5229;41.820;23.490;2023-02-03T10:57:02;90250.50;;;23.17;31.86
10366;BME280;5229;41.820;23.490;2023-02-03T10:59:32;90259.91;;;21.88;33.26
10366;BME280;5229;41.820;23.490;2023-02-03T11:02:06;90251.38;;;20.40;33.58
10366;BME280;5229;41.820;23.490;2023-02-03T11:04:34;90244.59;;;19.04;35.25
10366;BME280;5229;41.820;23.490;2023-02-03T11:07:03;90244.16;;;17.95;35.63
10366;BME280;5229;41.820;23.490;2023-02-03T11:09:33;90239.56;;;16.71;35.54
10366;BME280;5229;41.820;23.490;2023-02-03T11:12:05;90227.69;;;15.58;36.76
10366;BME280;5229;41.820;23.490;2023-02-03T11:14:38;90220.88;;;14.44;36.23
10366;BME280;5229;41.820;23.490;2023-02-03T11:17:08;90224.34;;;13.37;37.03
10366;BME280;5229;41.820;23.490;2023-02-03T11:19:43;90215.59;;;12.41;37.58
10366;BME280;5229;41.820;23.490;2023-02-03T11:22:11;90216.88;;;11.83;38.40
10366;BME280;5229;41.820;23.490;2023-02-03T11:24:40;90206.34;;;11.32;39.93
10366;BME280;5229;41.820;23.490;2023-02-03T11:27:10;90209.00;;;10.93;39.51
10366;BME280;5229;41.820;23.490;2023-02-03T11:29:41;90208.09;;;10.59;39.81
10366;BME280;5229;41.820;23.490;2023-02-03T11:32:17;90210.81;;;10.32;40.66
10366;BME280;5229;41.820;23.490;2023-02-03T11:34:50;90208.84;;;10.07;41.07
10366;BME280;5229;41.820;23.490;2023-02-03T11:37:31;90203.84;;;9.75;41.15
10366;BME280;5229;41.820;23.490;2023-02-03T11:40:21;90205.25;;;9.45;41.41
10366;BME280;5229;41.820;23.490;2023-02-03T11:43:00;90216.25;;;9.01;41.14
10366;BME280;5229;41.820;23.490;2023-02-03T11:45:29;90208.22;;;8.76;42.11
10366;BME280;5229;41.820;23.490;2023-02-03T11:48:01;90195.09;;;8.59;42.08
10366;BME280;5229;41.820;23.490;2023-02-03T11:50:35;90199.00;;;8.43;42.16
10366;BME280;5229;41.820;23.490;2023-02-03T11:53:21;90185.88;;;8.26;42.45
10366;BME280;5229;41.820;23.490;2023-02-03T11:55:58;90196.97;;;8.08;43.36
10366;BME280;5229;41.820;23.490;2023-02-03T12:01:44;90190.03;;;7.58;43.63
10366;BME280;5229;41.820;23.490;2023-02-03T12:04:40;90189.31;;;7.34;44.58
10366;BME280;5229;41.820;23.490;2023-02-03T12:07:31;90190.31;;;7.19;43.84
10366;BME280;5229;41.820;23.490;2023-02-03T12:10:05;90198.19;;;7.09;43.70
10366;BME280;5229;41.820;23.490;2023-02-03T12:12:51;90200.59;;;7.01;44.81
10366;BME280;5229;41.820;23.490;2023-02-03T12:15:29;90199.63;;;6.97;45.42
10366;BME280;5229;41.820;23.490;2023-02-03T12:18:07;90200.25;;;6.89;45.30
10366;BME280;5229;41.820;23.490;2023-02-03T12:20:50;90183.59;;;6.81;45.03
10366;BME280;5229;41.820;23.490;2023-02-03T12:23:32;90187.31;;;6.70;45.25
10366;BME280;5229;41.820;23.490;2023-02-03T12:26:11;90183.81;;;6.61;44.81
10366;BME280;5229;41.820;23.490;2023-02-03T12:28:45;90176.94;;;6.57;45.05
10366;BME280;5229;41.820;23.490;2023-02-03T12:31:19;90187.28;;;6.52;45.37
10366;BME280;5229;41.820;23.490;2023-02-03T12:33:54;90184.81;;;6.42;45.96
10366;BME280;5229;41.820;23.490;2023-02-03T12:36:27;90193.13;;;6.34;46.01
10366;BME280;5229;41.820;23.490;2023-02-03T12:38:59;90179.06;;;6.26;46.29
10366;BME280;5229;41.820;23.490;2023-02-03T12:41:30;90184.03;;;6.18;46.09
10366;BME280;5229;41.820;23.490;2023-02-03T12:44:03;90171.75;;;6.09;45.79
10366;BME280;5229;41.820;23.490;2023-02-03T12:46:36;90183.16;;;6.03;45.47
10366;BME280;5229;41.820;23.490;2023-02-03T12:49:13;90174.47;;;5.94;45.85
10366;BME280;5229;41.820;23.490;2023-02-03T12:51:47;90184.09;;;5.84;45.70
10366;BME280;5229;41.820;23.490;2023-02-03T12:54:34;90179.00;;;5.74;46.03
10366;BME280;5229;41.820;23.490;2023-02-03T12:57:12;90194.97;;;5.71;46.40
10366;BME280;5229;41.820;23.490;2023-02-03T12:59:42;90186.00;;;5.68;46.76
10366;BME280;5229;41.820;23.490;2023-02-03T13:02:17;90192.94;;;5.68;45.78
10366;BME280;5229;41.820;23.490;2023-02-03T13:04:51;90186.53;;;5.65;45.73
10366;BME280;5229;41.820;23.490;2023-02-03T13:07:23;90192.72;;;5.59;45.33
10366;BME280;5229;41.820;23.490;2023-02-03T13:09:57;90188.66;;;5.53;44.96
10366;BME280;5229;41.820;23.490;2023-02-03T13:12:29;90186.66;;;5.50;45.35
10366;BME280;5229;41.820;23.490;2023-02-03T13:15:02;90201.03;;;5.51;45.58
10366;BME280;5229;41.820;23.490;2023-02-03T13:17:40;90186.66;;;5.45;44.88
10366;BME280;5229;41.820;23.490;2023-02-03T13:20:15;90187.75;;;5.39;44.50
10366;BME280;5229;41.820;23.490;2023-02-03T13:22:45;90189.03;;;5.37;44.90
10366;BME280;5229;41.820;23.490;2023-02-03T13:25:18;90189.09;;;5.27;44.83
10366;BME280;5229;41.820;23.490;2023-02-03T13:27:49;90174.25;;;5.24;44.46
10366;BME280;5229;41.820;23.490;2023-02-03T13:30:34;90187.91;;;5.14;44.87